createdAt,value
2022-08-25T00:02:17.596Z,8.68
2022-08-25T00:04:45.242Z,8.30
2022-08-25T00:07:20.777Z,8.80
2022-08-25T00:09:48.226Z,8.55
2022-08-25T00:12:15.227Z,9.00
2022-08-25T00:14:43.551Z,7.65
2022-08-25T00:17:10.517Z,9.13
2022-08-25T00:19:39.045Z,8.48
2022-08-25T00:22:08.052Z,9.60
2022-08-25T00:24:35.290Z,7.85
2022-08-25T00:27:02.645Z,8.45
2022-08-25T00:29:30.406Z,9.48
2022-08-25T00:31:58.158Z,8.27
2022-08-25T00:34:30.436Z,8.98
2022-08-25T00:36:57.502Z,9.70
2022-08-25T00:39:24.792Z,9.02
2022-08-25T00:41:54.151Z,8.55
2022-08-25T00:44:21.450Z,8.93
2022-08-25T00:46:54.999Z,8.65
2022-08-25T00:49:33.948Z,8.00
2022-08-25T00:52:33.827Z,9.37
2022-08-25T00:57:43.932Z,9.35
2022-08-25T01:00:17.293Z,9.32
2022-08-25T01:02:44.513Z,8.80
2022-08-25T01:05:12.662Z,8.80
2022-08-25T01:07:41.450Z,9.15
2022-08-25T01:10:13.561Z,9.13
2022-08-25T01:12:41.293Z,8.20
2022-08-25T01:15:11.551Z,8.35
2022-08-25T01:18:00.429Z,9.00
2022-08-25T01:20:30.650Z,9.03
2022-08-25T01:22:59.518Z,9.13
2022-08-25T01:25:54.416Z,8.57
2022-08-25T01:28:21.842Z,10.02
2022-08-25T01:30:50.173Z,8.48
2022-08-25T01:37:43.087Z,8.50
2022-08-25T01:40:10.898Z,9.65
2022-08-25T01:42:56.535Z,9.70
2022-08-25T01:45:23.577Z,9.23
2022-08-25T01:47:50.616Z,9.73
2022-08-25T01:50:17.695Z,10.02
2022-08-25T01:52:58.496Z,9.43
2022-08-25T01:55:26.087Z,10.07
2022-08-25T01:57:53.384Z,10.30
2022-08-25T02:00:22.894Z,9.75
2022-08-25T02:02:54.058Z,9.50
2022-08-25T02:05:23.513Z,10.43
2022-08-25T02:07:50.758Z,7.80
2022-08-25T02:10:17.858Z,10.07
2022-08-25T02:12:45.110Z,9.63
2022-08-25T02:15:12.187Z,9.02
2022-08-25T02:17:39.467Z,9.85
2022-08-25T02:20:09.091Z,9.35
2022-08-25T02:22:36.071Z,9.95
2022-08-25T02:25:03.752Z,10.05
2022-08-25T02:27:30.750Z,8.50
2022-08-25T02:29:57.822Z,10.93
2022-08-25T02:32:24.830Z,11.50
2022-08-25T02:34:51.825Z,11.00
2022-08-25T02:37:18.918Z,10.38
2022-08-25T02:39:46.250Z,10.00
2022-08-25T02:42:13.616Z,10.60
2022-08-25T02:44:41.285Z,11.63
2022-08-25T02:47:08.302Z,11.25
2022-08-25T02:49:35.359Z,10.32
2022-08-25T02:52:02.499Z,9.57
2022-08-25T02:54:30.748Z,10.85
2022-08-25T02:56:57.720Z,12.02
2022-08-25T02:59:24.710Z,10.65
2022-08-25T03:01:51.728Z,11.25
2022-08-25T03:04:19.292Z,9.50
2022-08-25T03:06:46.808Z,10.50
2022-08-25T03:09:14.497Z,10.77
2022-08-25T03:11:42.070Z,11.73
2022-08-25T03:14:11.117Z,11.07
2022-08-25T03:16:38.355Z,11.50
2022-08-25T03:19:06.343Z,10.70
2022-08-25T03:21:33.447Z,11.63
2022-08-25T03:24:00.786Z,12.45
2022-08-25T03:26:46.166Z,12.48
2022-08-25T03:29:14.009Z,12.80
2022-08-25T03:31:43.767Z,13.35
2022-08-25T03:36:45.701Z,12.25
2022-08-25T03:39:13.269Z,11.73
2022-08-25T03:41:40.542Z,12.77
2022-08-25T03:44:10.114Z,11.93
2022-08-25T03:46:43.824Z,12.82
2022-08-25T03:49:15.011Z,13.85
2022-08-25T03:51:46.177Z,12.18
2022-08-25T03:54:15.650Z,11.15
2022-08-25T03:56:43.194Z,12.60
2022-08-25T03:59:10.674Z,12.68
2022-08-25T04:01:43.231Z,12.00
2022-08-25T04:04:12.085Z,12.45
2022-08-25T04:06:40.917Z,13.30
2022-08-25T04:09:08.205Z,13.30
2022-08-25T04:11:35.915Z,13.20
2022-08-25T04:14:04.275Z,13.32
2022-08-25T04:16:34.102Z,13.95
2022-08-25T04:19:02.988Z,13.20
2022-08-25T04:21:30.129Z,12.00
2022-08-25T04:23:57.807Z,13.45
2022-08-25T04:26:35.015Z,13.82
2022-08-25T04:29:03.845Z,14.20
2022-08-25T04:31:31.690Z,15.23
2022-08-25T04:34:01.637Z,14.15
2022-08-25T04:36:28.916Z,13.77
2022-08-25T04:38:56.471Z,14.43
2022-08-25T04:41:27.644Z,15.10
2022-08-25T04:43:58.142Z,14.45
2022-08-25T04:46:27.738Z,15.18
2022-08-25T04:48:56.760Z,14.35
2022-08-25T04:51:27.973Z,14.00
2022-08-25T04:53:55.402Z,14.48
2022-08-25T04:56:27.090Z,13.60
2022-08-25T04:58:55.911Z,12.60
2022-08-25T05:01:25.875Z,13.85
2022-08-25T05:03:59.601Z,12.40
2022-08-25T05:06:27.454Z,14.68
2022-08-25T05:08:56.099Z,14.07
2022-08-25T05:11:23.979Z,15.85
2022-08-25T05:13:53.029Z,14.30
2022-08-25T05:16:21.963Z,15.70
2022-08-25T05:18:50.717Z,14.90
2022-08-25T05:21:24.801Z,15.23
2022-08-25T05:23:56.866Z,15.20
2022-08-25T05:26:25.654Z,15.10
2022-08-25T05:28:54.323Z,15.57
2022-08-25T05:31:23.428Z,15.65
2022-08-25T05:33:51.411Z,15.48
2022-08-25T05:36:20.308Z,15.98
2022-08-25T05:38:47.866Z,15.83
2022-08-25T05:41:21.448Z,16.65
2022-08-25T05:43:50.070Z,15.57
2022-08-25T05:46:19.220Z,16.50
2022-08-25T05:48:46.905Z,16.35
2022-08-25T05:51:15.180Z,15.90
2022-08-25T05:53:44.764Z,15.38
2022-08-25T05:56:14.100Z,15.52
2022-08-25T05:58:43.143Z,16.10
2022-08-25T06:01:36.610Z,15.20
2022-08-25T06:04:03.898Z,14.43
2022-08-25T06:06:30.967Z,15.75
2022-08-25T06:08:57.919Z,14.15
2022-08-25T06:11:25.005Z,15.80
2022-08-25T06:13:51.991Z,14.93
2022-08-25T06:16:19.096Z,14.10
2022-08-25T06:18:46.185Z,15.10
2022-08-25T06:21:15.355Z,14.20
2022-08-25T06:23:42.506Z,15.23
2022-08-25T06:26:20.971Z,14.90
2022-08-25T06:28:49.319Z,15.90
2022-08-25T06:31:17.277Z,17.30
2022-08-25T06:33:44.982Z,15.48
2022-08-25T06:36:12.029Z,15.73
2022-08-25T06:38:39.002Z,15.60
2022-08-25T06:41:07.472Z,15.60
2022-08-25T06:43:34.966Z,14.98
2022-08-25T06:46:17.748Z,16.30
2022-08-25T06:48:45.290Z,15.00
2022-08-25T06:51:15.178Z,14.57
2022-08-25T06:53:43.446Z,15.48
2022-08-25T06:56:11.214Z,15.43
2022-08-25T06:58:38.903Z,15.57
2022-08-25T07:01:14.945Z,15.18
2022-08-25T07:03:47.478Z,13.98
2022-08-25T07:06:14.910Z,14.10
2022-08-25T07:08:46.685Z,14.20
2022-08-25T07:11:16.601Z,14.25
2022-08-25T07:13:45.650Z,13.80
2022-08-25T07:16:15.768Z,12.63
2022-08-25T07:18:44.152Z,13.45
2022-08-25T07:21:12.895Z,12.90
2022-08-25T07:23:41.132Z,12.60
2022-08-25T07:29:08.417Z,11.15
2022-08-25T07:31:35.525Z,11.75
2022-08-25T07:34:21.124Z,12.23
2022-08-25T07:36:48.163Z,11.80
2022-08-25T07:39:15.172Z,11.52
2022-08-25T07:41:42.499Z,10.52
2022-08-25T07:44:11.998Z,11.60
2022-08-25T07:46:39.768Z,10.20
2022-08-25T07:49:16.825Z,11.02
2022-08-25T07:52:05.472Z,10.15
2022-08-25T07:54:34.955Z,10.05
2022-08-25T07:59:39.296Z,9.70
2022-08-25T08:02:09.328Z,8.13
2022-08-25T08:04:48.712Z,9.68
2022-08-25T08:07:43.604Z,8.82
2022-08-25T08:13:01.952Z,8.38
2022-08-25T08:15:30.213Z,7.95
2022-08-25T08:17:58.491Z,7.78
2022-08-25T08:20:26.769Z,7.50
2022-08-25T08:22:54.049Z,7.72
2022-08-25T08:25:26.591Z,7.78
2022-08-25T08:27:55.282Z,7.85
2022-08-25T08:30:23.790Z,7.28
2022-08-25T08:33:09.070Z,6.70
2022-08-25T08:35:37.257Z,6.40
2022-08-25T08:38:13.123Z,6.18
2022-08-25T08:41:24.453Z,6.38
2022-08-25T08:43:59.247Z,6.32
2022-08-25T08:46:39.959Z,6.15
2022-08-25T08:49:35.801Z,7.45
2022-08-25T08:52:05.524Z,5.95
2022-08-25T08:57:22.239Z,6.65
2022-08-25T09:00:01.665Z,6.57
2022-08-25T09:02:52.069Z,6.15
2022-08-25T09:05:22.024Z,5.78
2022-08-25T09:08:12.525Z,6.45
2022-08-25T09:11:20.570Z,5.55
2022-08-25T09:14:18.545Z,5.55
2022-08-25T09:17:06.149Z,5.28
2022-08-25T09:19:54.556Z,6.32
2022-08-25T09:22:50.408Z,6.35
2022-08-25T09:25:52.970Z,6.70
2022-08-25T09:28:37.908Z,6.05
2022-08-25T09:31:21.067Z,6.40
2022-08-25T09:33:48.182Z,5.78
2022-08-25T09:38:46.916Z,5.45
2022-08-25T09:41:19.481Z,6.18
2022-08-25T09:43:54.111Z,5.78
2022-08-25T09:46:28.058Z,5.72
2022-08-25T09:48:59.467Z,6.53
2022-08-25T09:51:37.881Z,5.43
2022-08-25T09:54:15.392Z,5.18
2022-08-25T09:57:02.202Z,5.65
2022-08-25T09:59:35.261Z,6.03
2022-08-25T10:02:25.743Z,5.10
2022-08-25T10:04:53.538Z,4.80
2022-08-25T10:07:28.347Z,5.72
2022-08-25T10:10:07.725Z,5.40
2022-08-25T10:12:43.199Z,5.78
2022-08-25T10:15:42.691Z,5.70
2022-08-25T10:21:01.505Z,5.80
2022-08-25T10:23:30.762Z,6.07
2022-08-25T10:26:04.572Z,5.60
2022-08-25T10:28:59.499Z,5.25
2022-08-25T10:31:58.531Z,5.07
2022-08-25T10:34:35.791Z,5.38
2022-08-25T10:37:21.082Z,5.50
2022-08-25T10:40:04.909Z,5.80
2022-08-25T10:42:57.394Z,5.30
2022-08-25T10:45:45.963Z,5.38
2022-08-25T10:48:27.999Z,5.53
2022-08-25T10:51:19.644Z,5.35
2022-08-25T10:54:07.803Z,5.47
2022-08-25T10:56:41.001Z,5.65
2022-08-25T10:59:20.967Z,5.18
2022-08-25T11:02:11.474Z,5.47
2022-08-25T11:05:07.007Z,5.28
2022-08-25T11:07:38.071Z,5.32
2022-08-25T11:10:12.329Z,5.05
2022-08-25T11:12:47.399Z,5.47
2022-08-25T11:15:15.173Z,5.15
2022-08-25T11:17:51.675Z,5.10
2022-08-25T11:20:26.971Z,4.95
2022-08-25T11:23:19.687Z,5.72
2022-08-25T11:25:57.240Z,5.78
2022-08-25T11:28:51.420Z,5.57
2022-08-25T11:31:21.362Z,5.20
2022-08-25T11:33:51.083Z,6.10
2022-08-25T11:36:23.987Z,5.43
2022-08-25T11:39:19.172Z,5.60
2022-08-25T11:42:23.098Z,5.32
2022-08-25T11:45:22.969Z,5.70
2022-08-25T11:48:20.619Z,5.07
2022-08-25T11:51:09.441Z,5.18
2022-08-25T11:53:42.130Z,5.63
2022-08-25T11:56:32.679Z,5.78
2022-08-25T11:58:59.918Z,5.53
2022-08-25T12:01:43.272Z,5.53
2022-08-25T12:04:13.417Z,5.45
2022-08-25T12:07:07.188Z,4.80
2022-08-25T12:09:55.111Z,5.78
2022-08-25T12:12:35.876Z,5.53
2022-08-25T12:15:21.184Z,6.15
2022-08-25T12:18:15.640Z,5.90
2022-08-25T12:20:57.558Z,6.22
2022-08-25T12:23:35.025Z,6.00
2022-08-25T12:26:11.034Z,6.03
2022-08-25T12:28:54.021Z,5.55
2022-08-25T12:31:44.035Z,5.75
2022-08-25T12:34:44.039Z,6.10
2022-08-25T12:37:15.384Z,5.30
2022-08-25T12:39:51.184Z,6.00
2022-08-25T12:42:39.017Z,5.85
2022-08-25T12:45:21.203Z,5.55
2022-08-25T12:47:50.035Z,5.43
2022-08-25T12:50:38.414Z,5.55
2022-08-25T12:53:17.868Z,6.18
2022-08-25T12:58:15.582Z,5.97
2022-08-25T13:01:07.038Z,5.97
2022-08-25T13:03:58.265Z,5.72
2022-08-25T13:06:43.269Z,5.30
2022-08-25T13:09:49.371Z,5.32
2022-08-25T13:12:26.833Z,5.03
2022-08-25T13:14:57.498Z,5.45
2022-08-25T13:17:30.554Z,5.63
2022-08-25T13:20:20.048Z,5.80
2022-08-25T13:22:53.967Z,5.88
2022-08-25T13:25:30.114Z,5.80
2022-08-25T13:28:03.174Z,6.13
2022-08-25T13:30:35.855Z,6.28
2022-08-25T13:33:20.309Z,6.03
2022-08-25T13:36:13.300Z,6.40
2022-08-25T13:38:40.859Z,6.22
2022-08-25T13:41:19.158Z,5.93
2022-08-25T13:43:46.194Z,5.53
2022-08-25T13:46:18.052Z,5.30
2022-08-25T13:48:49.388Z,5.22
2022-08-25T13:51:21.616Z,5.30
2022-08-25T13:53:51.384Z,5.63
2022-08-25T13:56:45.158Z,5.10
2022-08-25T13:59:26.890Z,5.20
2022-08-25T14:01:55.365Z,4.93
2022-08-25T14:04:51.368Z,5.47
2022-08-25T14:07:20.315Z,5.28
2022-08-25T14:09:55.169Z,5.18
2022-08-25T14:15:07.305Z,5.35
2022-08-25T14:17:39.173Z,5.53
2022-08-25T14:20:29.151Z,5.35
2022-08-25T14:23:03.534Z,5.35
2022-08-25T14:25:35.275Z,4.88
2022-08-25T14:28:07.142Z,5.25
2022-08-25T14:30:39.365Z,4.45
2022-08-25T14:33:07.203Z,4.88
2022-08-25T14:35:34.632Z,4.70
2022-08-25T14:38:10.071Z,4.70
2022-08-25T14:40:38.075Z,4.90
2022-08-25T14:43:09.512Z,4.43
2022-08-25T14:45:40.255Z,4.85
2022-08-25T14:48:20.492Z,4.40
2022-08-25T14:50:47.551Z,4.97
2022-08-25T14:53:17.803Z,4.90
2022-08-25T14:55:44.813Z,4.63
2022-08-25T14:58:11.810Z,4.60
2022-08-25T15:00:45.081Z,4.70
2022-08-25T15:03:17.586Z,4.40
2022-08-25T15:05:45.290Z,4.65
2022-08-25T15:08:33.196Z,5.28
2022-08-25T15:11:00.703Z,5.50
2022-08-25T15:13:28.317Z,5.80
2022-08-25T15:15:58.026Z,4.95
2022-08-25T15:18:25.945Z,4.85
2022-08-25T15:20:53.005Z,4.70
2022-08-25T15:23:20.655Z,5.03
2022-08-25T15:25:52.863Z,5.18
2022-08-25T15:28:22.333Z,5.00
2022-08-25T15:30:50.247Z,5.20
2022-08-25T15:33:18.003Z,5.13
2022-08-25T15:35:46.343Z,5.20
2022-08-25T15:38:13.790Z,4.75
2022-08-25T15:40:41.081Z,4.50
2022-08-25T15:43:08.134Z,5.38
2022-08-25T15:45:36.374Z,5.10
2022-08-25T15:48:07.406Z,4.82
2022-08-25T15:50:36.757Z,4.97
2022-08-25T15:53:07.044Z,5.20
2022-08-25T15:55:39.739Z,4.93
2022-08-25T15:58:07.147Z,5.05
2022-08-25T16:00:36.671Z,5.40
2022-08-25T16:03:05.274Z,5.00
2022-08-25T16:05:41.316Z,5.35
2022-08-25T16:08:19.756Z,3.80
2022-08-25T16:10:47.175Z,4.35
2022-08-25T16:13:14.273Z,4.55
2022-08-25T16:15:41.428Z,5.22
2022-08-25T16:18:08.482Z,5.45
2022-08-25T16:20:36.661Z,5.32
2022-08-25T16:23:04.050Z,5.93
2022-08-25T16:25:31.647Z,5.55
2022-08-25T16:27:58.707Z,4.85
2022-08-25T16:30:25.834Z,5.00
2022-08-25T16:32:54.031Z,4.75
2022-08-25T16:35:21.187Z,6.15
2022-08-25T16:37:49.621Z,5.75
2022-08-25T16:40:19.009Z,5.90
2022-08-25T16:42:47.031Z,5.55
2022-08-25T16:45:14.118Z,5.38
2022-08-25T16:47:42.798Z,5.65
2022-08-25T16:50:10.938Z,5.53
2022-08-25T16:52:58.221Z,5.75
2022-08-25T16:55:27.473Z,5.35
2022-08-25T16:57:55.542Z,5.15
2022-08-25T17:00:28.228Z,5.38
2022-08-25T17:03:06.334Z,6.00
2022-08-25T17:05:39.699Z,5.47
2022-08-25T17:08:25.079Z,5.55
2022-08-25T17:10:52.658Z,5.85
2022-08-25T17:13:19.630Z,6.35
2022-08-25T17:15:52.463Z,5.95
2022-08-25T17:18:19.682Z,6.05
2022-08-25T17:20:48.695Z,6.35
2022-08-25T17:23:18.338Z,5.82
2022-08-25T17:25:50.061Z,6.03
2022-08-25T17:28:17.044Z,5.07
2022-08-25T17:30:44.729Z,6.50
2022-08-25T17:33:14.221Z,6.10
2022-08-25T17:35:44.883Z,6.88
2022-08-25T17:40:40.155Z,7.13
2022-08-25T17:43:09.165Z,6.88
2022-08-25T17:45:37.847Z,7.60
2022-08-25T17:48:07.942Z,6.97
2022-08-25T17:50:36.629Z,7.68
2022-08-25T17:53:03.816Z,7.40
2022-08-25T17:55:31.513Z,8.00
2022-08-25T17:57:59.210Z,7.45
2022-08-25T18:00:26.233Z,7.10
2022-08-25T18:02:53.224Z,8.18
2022-08-25T18:05:20.404Z,7.60
2022-08-25T18:07:48.076Z,7.60
2022-08-25T18:10:16.799Z,7.80
2022-08-25T18:12:44.365Z,7.93
2022-08-25T18:15:12.644Z,8.30
2022-08-25T18:17:41.798Z,8.60
2022-08-25T18:20:11.206Z,7.93
2022-08-25T18:22:38.851Z,8.50
2022-08-25T18:25:09.700Z,7.93
2022-08-25T18:27:37.135Z,8.10
2022-08-25T18:30:06.155Z,8.57
2022-08-25T18:32:33.708Z,8.30
2022-08-25T18:35:01.062Z,9.48
2022-08-25T18:37:46.507Z,10.20
2022-08-25T18:40:23.710Z,9.95
2022-08-25T18:43:02.561Z,11.20
2022-08-25T18:45:41.418Z,10.20
2022-08-25T18:48:09.072Z,10.10
2022-08-25T18:50:38.559Z,9.20
2022-08-25T18:53:06.548Z,9.70
2022-08-25T18:55:35.476Z,9.93
2022-08-25T18:58:04.749Z,11.70
2022-08-25T19:00:33.004Z,11.95
2022-08-25T19:03:01.099Z,10.73
2022-08-25T19:05:32.621Z,8.93
2022-08-25T19:08:05.742Z,9.88
2022-08-25T19:10:33.912Z,9.25
2022-08-25T19:13:07.913Z,9.40
2022-08-25T19:15:36.686Z,9.23
2022-08-25T19:18:07.997Z,8.85
2022-08-25T19:20:37.394Z,8.77
2022-08-25T19:23:07.665Z,8.90
2022-08-25T19:25:35.982Z,8.75
2022-08-25T19:28:12.167Z,8.73
2022-08-25T19:30:43.665Z,8.90
2022-08-25T19:33:42.621Z,7.82
2022-08-25T19:36:06.413Z,8.48
2022-08-25T19:38:37.559Z,8.57
2022-08-25T19:41:13.819Z,8.03
2022-08-25T19:43:55.150Z,8.40
2022-08-25T19:46:33.353Z,8.75
2022-08-25T19:49:12.610Z,8.70
2022-08-25T19:51:43.839Z,8.35
2022-08-25T19:54:16.524Z,8.48
2022-08-25T19:56:54.255Z,8.75
2022-08-25T19:59:34.386Z,8.73
2022-08-25T20:02:16.764Z,8.52
2022-08-25T20:04:49.532Z,8.43
2022-08-25T20:07:23.697Z,8.35
2022-08-25T20:09:52.133Z,8.10
2022-08-25T20:12:20.387Z,8.68
2022-08-25T20:14:50.271Z,8.50
2022-08-25T20:17:24.749Z,8.25
2022-08-25T20:19:59.082Z,8.57
2022-08-25T20:22:30.030Z,8.93
2022-08-25T20:24:59.466Z,8.35
2022-08-25T20:27:38.467Z,8.73
2022-08-25T20:30:10.177Z,8.27
2022-08-25T20:32:37.678Z,8.98
2022-08-25T20:35:09.002Z,8.57
2022-08-25T20:37:36.659Z,8.55
2022-08-25T20:40:06.892Z,8.25
2022-08-25T20:42:34.760Z,8.55
2022-08-25T20:45:02.285Z,9.05
2022-08-25T20:47:29.938Z,8.52
2022-08-25T20:50:00.384Z,8.75
2022-08-25T20:52:30.378Z,9.68
2022-08-25T20:54:57.397Z,8.40
2022-08-25T20:57:26.045Z,9.38
2022-08-25T20:59:54.849Z,9.27
2022-08-25T21:02:23.856Z,9.57
2022-08-25T21:04:52.157Z,8.70
2022-08-25T21:07:20.565Z,9.30
2022-08-25T21:09:47.977Z,8.55
2022-08-25T21:12:15.311Z,8.00
2022-08-25T21:14:44.301Z,8.88
2022-08-25T21:17:12.763Z,9.45
2022-08-25T21:19:40.318Z,10.18
2022-08-25T21:22:09.555Z,10.57
2022-08-25T21:24:38.547Z,9.80
2022-08-25T21:27:06.220Z,9.23
2022-08-25T21:29:33.366Z,8.95
2022-08-25T21:32:00.783Z,9.95
2022-08-25T21:34:29.040Z,9.35
2022-08-25T21:36:58.187Z,9.07
2022-08-25T21:39:28.227Z,9.45
2022-08-25T21:41:59.944Z,9.77
2022-08-25T21:44:27.929Z,9.18
2022-08-25T21:46:54.997Z,9.73
2022-08-25T21:49:23.385Z,9.00
2022-08-25T21:52:02.416Z,9.77
2022-08-25T21:54:30.905Z,9.43
2022-08-25T21:57:01.259Z,9.75
2022-08-25T21:59:40.558Z,9.98
2022-08-25T22:02:10.327Z,10.02
2022-08-25T22:07:07.139Z,9.20
2022-08-25T22:09:35.624Z,9.82
2022-08-25T22:12:03.943Z,10.15
2022-08-25T22:14:31.335Z,10.38
2022-08-25T22:16:58.544Z,10.57
2022-08-25T22:19:26.623Z,9.90
2022-08-25T22:21:54.938Z,9.57
2022-08-25T22:24:21.995Z,10.00
2022-08-25T22:26:49.427Z,10.65
2022-08-25T22:29:23.202Z,10.23
2022-08-25T22:31:59.417Z,9.60
2022-08-25T22:34:32.542Z,10.27
2022-08-25T22:37:01.925Z,10.20
2022-08-25T22:39:32.232Z,10.70
2022-08-25T22:42:01.848Z,10.05
2022-08-25T22:44:28.863Z,9.70
2022-08-25T22:46:56.003Z,10.57
2022-08-25T22:49:23.754Z,10.32
2022-08-25T22:51:50.984Z,10.20
2022-08-25T22:54:18.142Z,10.02
2022-08-25T22:56:45.937Z,9.70
2022-08-25T22:59:13.977Z,10.07
2022-08-25T23:01:44.324Z,9.75
2022-08-25T23:04:12.139Z,10.27
2022-08-25T23:06:39.863Z,11.18
2022-08-25T23:09:08.862Z,10.73
2022-08-25T23:11:38.673Z,11.73
2022-08-25T23:14:10.174Z,11.88
2022-08-25T23:16:41.710Z,11.25
2022-08-25T23:19:10.757Z,11.18
2022-08-25T23:21:56.837Z,11.30
2022-08-25T23:24:29.252Z,10.70
2022-08-25T23:27:02.432Z,10.18
2022-08-25T23:29:32.563Z,10.70
2022-08-25T23:31:59.850Z,10.40
2022-08-25T23:34:28.470Z,10.77
2022-08-25T23:36:56.618Z,11.02
2022-08-25T23:39:23.634Z,10.45
2022-08-25T23:41:51.779Z,10.48
2022-08-25T23:44:20.466Z,9.60
2022-08-25T23:46:48.703Z,10.55
2022-08-25T23:49:18.890Z,11.73
2022-08-25T23:51:48.739Z,12.00
2022-08-25T23:56:51.790Z,10.38
2022-08-25T23:59:20.413Z,11.27
